sensor_id;sensor_type;location;lat;lon;timestamp;temperature;humidity
14670;DHT22;7423;48.722;9.350;2022-07-29T00:06:04;23.90;99.90
14670;DHT22;7423;48.722;9.350;2022-07-29T00:50:04;24.10;99.90
14670;DHT22;7423;48.722;9.350;2022-07-29T00:53:55;23.80;99.90
14670;DHT22;7423;48.722;9.350;2022-07-29T00:57:26;23.90;99.90
14670;DHT22;7423;48.722;9.350;2022-07-29T01:01:12;23.90;99.90
14670;DHT22;7423;48.722;9.350;2022-07-29T01:16:42;23.60;99.90
14670;DHT22;7423;48.722;9.350;2022-07-29T01:29:18;23.60;99.90
14670;DHT22;7423;48.722;9.350;2022-07-29T01:31:47;23.50;99.90
14670;DHT22;7423;48.722;9.350;2022-07-29T01:40:24;23.40;99.90
14670;DHT22;7423;48.722;9.350;2022-07-29T01:42:57;23.40;99.90
14670;DHT22;7423;48.722;9.350;2022-07-29T01:45:37;23.40;99.90
14670;DHT22;7423;48.722;9.350;2022-07-29T01:50:56;23.40;99.90
14670;DHT22;7423;48.722;9.350;2022-07-29T01:53:43;23.40;99.90
14670;DHT22;7423;48.722;9.350;2022-07-29T01:56:12;23.40;99.90
14670;DHT22;7423;48.722;9.350;2022-07-29T01:58:41;23.30;99.90
14670;DHT22;7423;48.722;9.350;2022-07-29T02:01:11;23.30;99.90
14670;DHT22;7423;48.722;9.350;2022-07-29T02:03:42;23.30;99.90
14670;DHT22;7423;48.722;9.350;2022-07-29T02:06:11;23.30;99.90
14670;DHT22;7423;48.722;9.350;2022-07-29T02:08:39;23.30;99.90
14670;DHT22;7423;48.722;9.350;2022-07-29T02:11:07;23.30;99.90
14670;DHT22;7423;48.722;9.350;2022-07-29T02:13:52;23.20;99.90
14670;DHT22;7423;48.722;9.350;2022-07-29T02:16:36;23.70;99.90
14670;DHT22;7423;48.722;9.350;2022-07-29T02:19:15;25.90;99.90
14670;DHT22;7423;48.722;9.350;2022-07-29T02:21:53;22.90;99.90
14670;DHT22;7423;48.722;9.350;2022-07-29T02:24:36;26.00;99.90
14670;DHT22;7423;48.722;9.350;2022-07-29T02:31:04;24.40;99.90
14670;DHT22;7423;48.722;9.350;2022-07-29T02:34:07;24.00;99.90
14670;DHT22;7423;48.722;9.350;2022-07-29T02:37:00;23.20;99.90
14670;DHT22;7423;48.722;9.350;2022-07-29T02:39:51;20.70;99.90
14670;DHT22;7423;48.722;9.350;2022-07-29T02:42:41;23.20;99.90
14670;DHT22;7423;48.722;9.350;2022-07-29T02:48:48;22.90;99.90
14670;DHT22;7423;48.722;9.350;2022-07-29T02:52:13;23.40;99.90
14670;DHT22;7423;48.722;9.350;2022-07-29T02:55:23;23.10;99.90
14670;DHT22;7423;48.722;9.350;2022-07-29T03:07:34;22.80;99.90
14670;DHT22;7423;48.722;9.350;2022-07-29T03:10:08;23.10;99.90
14670;DHT22;7423;48.722;9.350;2022-07-29T03:12:42;25.20;99.90
14670;DHT22;7423;48.722;9.350;2022-07-29T03:15:21;21.90;99.90
14670;DHT22;7423;48.722;9.350;2022-07-29T03:17:51;24.80;99.90
14670;DHT22;7423;48.722;9.350;2022-07-29T03:20:19;22.80;99.90
14670;DHT22;7423;48.722;9.350;2022-07-29T03:22:46;22.80;99.90
14670;DHT22;7423;48.722;9.350;2022-07-29T03:25:15;22.80;99.90
14670;DHT22;7423;48.722;9.350;2022-07-29T03:27:43;22.80;99.90
14670;DHT22;7423;48.722;9.350;2022-07-29T03:30:11;22.70;99.90
14670;DHT22;7423;48.722;9.350;2022-07-29T03:32:48;22.70;99.90
14670;DHT22;7423;48.722;9.350;2022-07-29T03:35:18;22.70;99.90
14670;DHT22;7423;48.722;9.350;2022-07-29T03:37:46;22.70;99.90
14670;DHT22;7423;48.722;9.350;2022-07-29T03:40:18;22.60;99.90
14670;DHT22;7423;48.722;9.350;2022-07-29T03:42:50;22.60;99.90
14670;DHT22;7423;48.722;9.350;2022-07-29T03:45:18;22.60;99.90
14670;DHT22;7423;48.722;9.350;2022-07-29T03:47:50;22.60;99.90
14670;DHT22;7423;48.722;9.350;2022-07-29T03:50:26;22.50;99.90
14670;DHT22;7423;48.722;9.350;2022-07-29T03:52:54;22.60;99.90
14670;DHT22;7423;48.722;9.350;2022-07-29T03:55:21;22.60;99.90
14670;DHT22;7423;48.722;9.350;2022-07-29T03:57:48;22.60;99.90
14670;DHT22;7423;48.722;9.350;2022-07-29T04:00:16;22.60;99.90
14670;DHT22;7423;48.722;9.350;2022-07-29T04:02:43;22.60;99.90
14670;DHT22;7423;48.722;9.350;2022-07-29T04:05:16;22.60;99.90
14670;DHT22;7423;48.722;9.350;2022-07-29T04:07:44;22.60;99.90
14670;DHT22;7423;48.722;9.350;2022-07-29T04:10:11;22.60;99.90
14670;DHT22;7423;48.722;9.350;2022-07-29T04:12:38;22.50;99.90
14670;DHT22;7423;48.722;9.350;2022-07-29T04:15:06;22.30;99.90
14670;DHT22;7423;48.722;9.350;2022-07-29T04:17:33;22.50;99.90
14670;DHT22;7423;48.722;9.350;2022-07-29T04:20:00;22.50;99.90
14670;DHT22;7423;48.722;9.350;2022-07-29T04:22:27;22.40;99.90
14670;DHT22;7423;48.722;9.350;2022-07-29T04:24:53;22.40;99.90
14670;DHT22;7423;48.722;9.350;2022-07-29T04:27:24;22.40;99.90
14670;DHT22;7423;48.722;9.350;2022-07-29T04:29:51;22.40;99.90
14670;DHT22;7423;48.722;9.350;2022-07-29T04:32:23;22.50;99.90
14670;DHT22;7423;48.722;9.350;2022-07-29T04:34:51;22.50;99.90
14670;DHT22;7423;48.722;9.350;2022-07-29T04:37:18;22.50;99.90
14670;DHT22;7423;48.722;9.350;2022-07-29T04:39:45;22.40;99.90
14670;DHT22;7423;48.722;9.350;2022-07-29T04:42:12;22.40;99.90
14670;DHT22;7423;48.722;9.350;2022-07-29T04:44:39;22.30;99.90
14670;DHT22;7423;48.722;9.350;2022-07-29T04:47:09;22.40;99.90
14670;DHT22;7423;48.722;9.350;2022-07-29T04:49:38;22.40;99.90
14670;DHT22;7423;48.722;9.350;2022-07-29T04:52:06;22.30;99.90
14670;DHT22;7423;48.722;9.350;2022-07-29T04:54:33;22.30;99.90
14670;DHT22;7423;48.722;9.350;2022-07-29T04:57:00;22.30;99.90
14670;DHT22;7423;48.722;9.350;2022-07-29T04:59:26;22.40;99.90
14670;DHT22;7423;48.722;9.350;2022-07-29T05:01:53;22.40;99.90
14670;DHT22;7423;48.722;9.350;2022-07-29T05:04:20;22.40;99.90
14670;DHT22;7423;48.722;9.350;2022-07-29T05:06:47;22.40;99.90
14670;DHT22;7423;48.722;9.350;2022-07-29T05:09:14;22.40;99.90
14670;DHT22;7423;48.722;9.350;2022-07-29T05:11:41;22.40;99.90
14670;DHT22;7423;48.722;9.350;2022-07-29T05:14:08;22.50;99.90
14670;DHT22;7423;48.722;9.350;2022-07-29T05:16:35;22.50;99.90
14670;DHT22;7423;48.722;9.350;2022-07-29T05:19:02;22.40;99.90
14670;DHT22;7423;48.722;9.350;2022-07-29T05:21:29;22.50;99.90
14670;DHT22;7423;48.722;9.350;2022-07-29T05:23:55;22.50;99.90
14670;DHT22;7423;48.722;9.350;2022-07-29T05:26:22;22.50;99.90
14670;DHT22;7423;48.722;9.350;2022-07-29T05:28:49;22.50;99.90
14670;DHT22;7423;48.722;9.350;2022-07-29T05:31:16;22.50;99.90
14670;DHT22;7423;48.722;9.350;2022-07-29T05:33:43;22.50;99.90
14670;DHT22;7423;48.722;9.350;2022-07-29T05:36:10;22.60;99.90
14670;DHT22;7423;48.722;9.350;2022-07-29T05:38:38;22.60;99.90
14670;DHT22;7423;48.722;9.350;2022-07-29T05:41:05;23.40;99.90
14670;DHT22;7423;48.722;9.350;2022-07-29T05:43:32;22.60;99.90
14670;DHT22;7423;48.722;9.350;2022-07-29T05:45:59;22.60;99.90
14670;DHT22;7423;48.722;9.350;2022-07-29T05:48:26;22.70;99.90
14670;DHT22;7423;48.722;9.350;2022-07-29T05:50:54;22.70;99.90
14670;DHT22;7423;48.722;9.350;2022-07-29T05:53:21;22.70;99.90
14670;DHT22;7423;48.722;9.350;2022-07-29T05:55:48;22.80;99.90
14670;DHT22;7423;48.722;9.350;2022-07-29T05:58:16;22.80;99.90
14670;DHT22;7423;48.722;9.350;2022-07-29T06:00:43;22.80;99.90
14670;DHT22;7423;48.722;9.350;2022-07-29T06:03:10;22.80;99.90
14670;DHT22;7423;48.722;9.350;2022-07-29T06:05:37;22.80;99.90
14670;DHT22;7423;48.722;9.350;2022-07-29T06:08:04;22.90;99.90
14670;DHT22;7423;48.722;9.350;2022-07-29T06:10:35;22.90;99.90
14670;DHT22;7423;48.722;9.350;2022-07-29T06:13:02;22.90;99.90
14670;DHT22;7423;48.722;9.350;2022-07-29T06:15:29;22.90;99.90
14670;DHT22;7423;48.722;9.350;2022-07-29T06:17:56;22.90;99.90
14670;DHT22;7423;48.722;9.350;2022-07-29T06:20:30;22.90;99.90
14670;DHT22;7423;48.722;9.350;2022-07-29T06:22:58;23.00;99.90
14670;DHT22;7423;48.722;9.350;2022-07-29T06:25:26;23.10;99.90
14670;DHT22;7423;48.722;9.350;2022-07-29T06:27:55;23.10;99.90
14670;DHT22;7423;48.722;9.350;2022-07-29T06:30:22;23.10;99.90
14670;DHT22;7423;48.722;9.350;2022-07-29T06:32:49;23.10;99.90
14670;DHT22;7423;48.722;9.350;2022-07-29T06:35:16;23.10;99.90
14670;DHT22;7423;48.722;9.350;2022-07-29T06:38:03;23.10;99.90
14670;DHT22;7423;48.722;9.350;2022-07-29T06:40:50;23.10;99.90
14670;DHT22;7423;48.722;9.350;2022-07-29T06:43:28;23.10;99.90
14670;DHT22;7423;48.722;9.350;2022-07-29T06:46:06;23.20;99.90
14670;DHT22;7423;48.722;9.350;2022-07-29T06:48:34;23.20;99.90
14670;DHT22;7423;48.722;9.350;2022-07-29T06:51:05;23.20;99.90
14670;DHT22;7423;48.722;9.350;2022-07-29T06:53:33;23.30;99.90
14670;DHT22;7423;48.722;9.350;2022-07-29T06:56:01;23.30;99.90
14670;DHT22;7423;48.722;9.350;2022-07-29T06:58:29;23.40;99.90
14670;DHT22;7423;48.722;9.350;2022-07-29T07:00:58;23.40;99.90
14670;DHT22;7423;48.722;9.350;2022-07-29T07:03:25;23.40;99.90
14670;DHT22;7423;48.722;9.350;2022-07-29T07:05:53;23.60;99.90
14670;DHT22;7423;48.722;9.350;2022-07-29T07:08:21;23.50;99.90
14670;DHT22;7423;48.722;9.350;2022-07-29T07:10:48;23.60;99.90
14670;DHT22;7423;48.722;9.350;2022-07-29T07:13:18;23.60;99.90
14670;DHT22;7423;48.722;9.350;2022-07-29T07:15:46;23.60;99.90
14670;DHT22;7423;48.722;9.350;2022-07-29T07:18:15;23.60;99.90
14670;DHT22;7423;48.722;9.350;2022-07-29T07:20:43;23.70;99.90
14670;DHT22;7423;48.722;9.350;2022-07-29T07:23:10;23.70;99.90
14670;DHT22;7423;48.722;9.350;2022-07-29T07:25:37;23.80;99.90
14670;DHT22;7423;48.722;9.350;2022-07-29T07:28:04;23.80;99.90
14670;DHT22;7423;48.722;9.350;2022-07-29T07:30:31;23.80;99.90
14670;DHT22;7423;48.722;9.350;2022-07-29T07:32:59;23.90;99.90
14670;DHT22;7423;48.722;9.350;2022-07-29T07:35:26;23.90;99.90
14670;DHT22;7423;48.722;9.350;2022-07-29T07:37:55;23.80;99.90
14670;DHT22;7423;48.722;9.350;2022-07-29T07:40:22;24.00;99.90
14670;DHT22;7423;48.722;9.350;2022-07-29T07:42:49;24.00;99.90
14670;DHT22;7423;48.722;9.350;2022-07-29T07:45:16;24.00;99.90
14670;DHT22;7423;48.722;9.350;2022-07-29T07:47:43;24.00;99.90
14670;DHT22;7423;48.722;9.350;2022-07-29T07:50:11;24.00;99.90
14670;DHT22;7423;48.722;9.350;2022-07-29T07:52:52;24.00;99.90
14670;DHT22;7423;48.722;9.350;2022-07-29T07:55:20;24.00;99.90
14670;DHT22;7423;48.722;9.350;2022-07-29T07:57:47;24.00;99.90
14670;DHT22;7423;48.722;9.350;2022-07-29T08:00:15;24.10;99.90
14670;DHT22;7423;48.722;9.350;2022-07-29T08:02:42;24.00;99.90
14670;DHT22;7423;48.722;9.350;2022-07-29T08:05:10;23.80;99.90
14670;DHT22;7423;48.722;9.350;2022-07-29T08:07:38;23.80;99.90
14670;DHT22;7423;48.722;9.350;2022-07-29T08:10:05;23.90;99.90
14670;DHT22;7423;48.722;9.350;2022-07-29T08:12:32;24.00;99.90
14670;DHT22;7423;48.722;9.350;2022-07-29T08:14:59;24.00;99.90
14670;DHT22;7423;48.722;9.350;2022-07-29T08:17:26;24.10;99.90
14670;DHT22;7423;48.722;9.350;2022-07-29T08:19:53;24.10;99.90
14670;DHT22;7423;48.722;9.350;2022-07-29T08:22:20;24.20;99.90
14670;DHT22;7423;48.722;9.350;2022-07-29T08:24:47;24.20;99.90
14670;DHT22;7423;48.722;9.350;2022-07-29T08:27:21;24.20;99.90
14670;DHT22;7423;48.722;9.350;2022-07-29T08:30:08;24.30;99.90
14670;DHT22;7423;48.722;9.350;2022-07-29T08:32:36;24.30;99.90
14670;DHT22;7423;48.722;9.350;2022-07-29T08:35:22;24.30;99.90
14670;DHT22;7423;48.722;9.350;2022-07-29T08:37:49;24.40;99.90
14670;DHT22;7423;48.722;9.350;2022-07-29T08:40:17;24.40;99.90
14670;DHT22;7423;48.722;9.350;2022-07-29T08:42:43;24.30;99.90
14670;DHT22;7423;48.722;9.350;2022-07-29T08:45:11;24.40;99.90
14670;DHT22;7423;48.722;9.350;2022-07-29T08:47:40;24.50;99.90
14670;DHT22;7423;48.722;9.350;2022-07-29T08:50:08;24.50;99.90
14670;DHT22;7423;48.722;9.350;2022-07-29T08:52:38;24.40;99.90
14670;DHT22;7423;48.722;9.350;2022-07-29T08:55:07;24.60;99.90
14670;DHT22;7423;48.722;9.350;2022-07-29T08:57:35;24.60;99.90
14670;DHT22;7423;48.722;9.350;2022-07-29T09:00:05;24.70;99.90
14670;DHT22;7423;48.722;9.350;2022-07-29T09:02:40;24.60;99.90
14670;DHT22;7423;48.722;9.350;2022-07-29T09:05:12;24.80;99.90
14670;DHT22;7423;48.722;9.350;2022-07-29T09:07:39;24.80;99.90
14670;DHT22;7423;48.722;9.350;2022-07-29T09:10:09;24.80;99.90
14670;DHT22;7423;48.722;9.350;2022-07-29T09:12:37;24.80;99.90
14670;DHT22;7423;48.722;9.350;2022-07-29T09:15:05;24.80;99.90
14670;DHT22;7423;48.722;9.350;2022-07-29T09:17:46;24.90;99.90
14670;DHT22;7423;48.722;9.350;2022-07-29T09:20:20;25.10;99.90
14670;DHT22;7423;48.722;9.350;2022-07-29T09:22:52;25.10;99.90
14670;DHT22;7423;48.722;9.350;2022-07-29T09:25:36;25.20;99.90
14670;DHT22;7423;48.722;9.350;2022-07-29T09:28:15;25.30;99.90
14670;DHT22;7423;48.722;9.350;2022-07-29T09:30:54;25.40;99.90
14670;DHT22;7423;48.722;9.350;2022-07-29T09:33:23;25.40;99.90
14670;DHT22;7423;48.722;9.350;2022-07-29T09:36:06;25.60;99.90
14670;DHT22;7423;48.722;9.350;2022-07-29T09:38:34;25.60;99.90
14670;DHT22;7423;48.722;9.350;2022-07-29T09:41:04;25.60;99.90
14670;DHT22;7423;48.722;9.350;2022-07-29T09:43:33;25.60;99.90
14670;DHT22;7423;48.722;9.350;2022-07-29T09:46:10;25.60;99.90
14670;DHT22;7423;48.722;9.350;2022-07-29T09:48:38;25.70;99.90
14670;DHT22;7423;48.722;9.350;2022-07-29T09:51:19;25.80;99.90
14670;DHT22;7423;48.722;9.350;2022-07-29T09:54:26;25.90;99.90
14670;DHT22;7423;48.722;9.350;2022-07-29T09:56:54;26.00;99.90
14670;DHT22;7423;48.722;9.350;2022-07-29T09:59:22;26.10;99.90
14670;DHT22;7423;48.722;9.350;2022-07-29T10:01:53;26.20;99.90
14670;DHT22;7423;48.722;9.350;2022-07-29T10:04:20;26.20;99.90
14670;DHT22;7423;48.722;9.350;2022-07-29T10:06:59;26.30;99.90
14670;DHT22;7423;48.722;9.350;2022-07-29T10:09:31;26.30;99.90
14670;DHT22;7423;48.722;9.350;2022-07-29T10:12:12;26.40;99.90
14670;DHT22;7423;48.722;9.350;2022-07-29T10:14:42;26.50;99.90
14670;DHT22;7423;48.722;9.350;2022-07-29T10:17:10;26.50;99.90
14670;DHT22;7423;48.722;9.350;2022-07-29T10:19:38;26.60;99.90
14670;DHT22;7423;48.722;9.350;2022-07-29T10:22:08;26.70;99.90
14670;DHT22;7423;48.722;9.350;2022-07-29T10:24:37;26.80;99.90
14670;DHT22;7423;48.722;9.350;2022-07-29T10:27:07;26.90;99.90
14670;DHT22;7423;48.722;9.350;2022-07-29T10:29:34;26.80;99.90
14670;DHT22;7423;48.722;9.350;2022-07-29T10:35:19;27.10;99.90
14670;DHT22;7423;48.722;9.350;2022-07-29T10:44:24;27.40;99.90
14670;DHT22;7423;48.722;9.350;2022-07-29T10:46:52;27.50;99.90
14670;DHT22;7423;48.722;9.350;2022-07-29T10:49:25;27.50;99.90
14670;DHT22;7423;48.722;9.350;2022-07-29T10:54:44;27.70;99.90
14670;DHT22;7423;48.722;9.350;2022-07-29T10:57:13;27.70;99.90
14670;DHT22;7423;48.722;9.350;2022-07-29T11:00:27;27.70;99.90
14670;DHT22;7423;48.722;9.350;2022-07-29T11:02:56;27.80;99.90
14670;DHT22;7423;48.722;9.350;2022-07-29T11:05:24;27.80;99.90
14670;DHT22;7423;48.722;9.350;2022-07-29T11:10:53;27.70;99.90
14670;DHT22;7423;48.722;9.350;2022-07-29T11:13:49;27.50;99.90
14670;DHT22;7423;48.722;9.350;2022-07-29T11:16:19;27.40;99.90
14670;DHT22;7423;48.722;9.350;2022-07-29T11:21:44;27.40;99.90
14670;DHT22;7423;48.722;9.350;2022-07-29T11:24:23;27.30;99.90
14670;DHT22;7423;48.722;9.350;2022-07-29T11:27:13;27.30;99.90
14670;DHT22;7423;48.722;9.350;2022-07-29T11:29:52;27.30;99.90
14670;DHT22;7423;48.722;9.350;2022-07-29T11:32:23;27.30;99.90
14670;DHT22;7423;48.722;9.350;2022-07-29T11:38:25;26.60;99.90
14670;DHT22;7423;48.722;9.350;2022-07-29T11:43:56;24.50;99.90
14670;DHT22;7423;48.722;9.350;2022-07-29T11:46:48;23.50;99.90
14670;DHT22;7423;48.722;9.350;2022-07-29T11:49:26;23.20;99.90
14670;DHT22;7423;48.722;9.350;2022-07-29T11:51:59;21.70;99.90
14670;DHT22;7423;48.722;9.350;2022-07-29T11:54:33;21.60;99.90
14670;DHT22;7423;48.722;9.350;2022-07-29T11:57:21;21.20;99.90
14670;DHT22;7423;48.722;9.350;2022-07-29T11:59:48;21.40;99.90
14670;DHT22;7423;48.722;9.350;2022-07-29T12:02:16;21.60;99.90
14670;DHT22;7423;48.722;9.350;2022-07-29T12:05:03;21.80;99.90
14670;DHT22;7423;48.722;9.350;2022-07-29T12:07:37;22.00;99.90
14670;DHT22;7423;48.722;9.350;2022-07-29T12:10:13;21.90;99.90
14670;DHT22;7423;48.722;9.350;2022-07-29T12:12:55;22.00;99.90
14670;DHT22;7423;48.722;9.350;2022-07-29T12:15:22;22.20;99.90
14670;DHT22;7423;48.722;9.350;2022-07-29T12:18:15;22.20;99.90
14670;DHT22;7423;48.722;9.350;2022-07-29T12:20:45;22.30;99.90
14670;DHT22;7423;48.722;9.350;2022-07-29T12:23:14;22.40;99.90
14670;DHT22;7423;48.722;9.350;2022-07-29T12:25:44;22.50;99.90
14670;DHT22;7423;48.722;9.350;2022-07-29T12:28:15;22.60;99.90
14670;DHT22;7423;48.722;9.350;2022-07-29T12:30:53;22.60;99.90
14670;DHT22;7423;48.722;9.350;2022-07-29T12:33:25;22.70;99.90
14670;DHT22;7423;48.722;9.350;2022-07-29T12:35:58;22.70;99.90
14670;DHT22;7423;48.722;9.350;2022-07-29T12:38:43;22.70;99.90
14670;DHT22;7423;48.722;9.350;2022-07-29T12:41:11;22.80;99.90
14670;DHT22;7423;48.722;9.350;2022-07-29T12:43:54;22.80;99.90
14670;DHT22;7423;48.722;9.350;2022-07-29T12:46:21;22.70;99.90
14670;DHT22;7423;48.722;9.350;2022-07-29T12:48:52;22.60;99.90
14670;DHT22;7423;48.722;9.350;2022-07-29T12:51:43;22.70;99.90
14670;DHT22;7423;48.722;9.350;2022-07-29T12:54:15;22.60;99.90
14670;DHT22;7423;48.722;9.350;2022-07-29T12:56:44;22.60;99.90
14670;DHT22;7423;48.722;9.350;2022-07-29T12:59:19;22.70;99.90
14670;DHT22;7423;48.722;9.350;2022-07-29T13:01:49;22.90;99.90
14670;DHT22;7423;48.722;9.350;2022-07-29T13:04:28;22.80;99.90
14670;DHT22;7423;48.722;9.350;2022-07-29T13:07:23;22.80;99.90
14670;DHT22;7423;48.722;9.350;2022-07-29T13:10:19;22.90;99.90
14670;DHT22;7423;48.722;9.350;2022-07-29T13:15:32;23.00;99.90
14670;DHT22;7423;48.722;9.350;2022-07-29T13:17:59;22.80;99.90
14670;DHT22;7423;48.722;9.350;2022-07-29T13:20:28;22.50;99.90
14670;DHT22;7423;48.722;9.350;2022-07-29T13:22:59;22.40;99.90
14670;DHT22;7423;48.722;9.350;2022-07-29T13:25:31;22.60;99.90
14670;DHT22;7423;48.722;9.350;2022-07-29T13:27:59;22.80;99.90
14670;DHT22;7423;48.722;9.350;2022-07-29T13:30:26;22.90;99.90
14670;DHT22;7423;48.722;9.350;2022-07-29T13:32:54;23.00;99.90
14670;DHT22;7423;48.722;9.350;2022-07-29T13:35:21;22.80;99.90
14670;DHT22;7423;48.722;9.350;2022-07-29T13:37:48;22.90;99.90
14670;DHT22;7423;48.722;9.350;2022-07-29T13:40:17;22.90;99.90
14670;DHT22;7423;48.722;9.350;2022-07-29T13:42:44;23.00;99.90
14670;DHT22;7423;48.722;9.350;2022-07-29T13:45:13;23.00;99.90
14670;DHT22;7423;48.722;9.350;2022-07-29T13:47:40;23.10;99.90
14670;DHT22;7423;48.722;9.350;2022-07-29T13:50:14;22.90;99.90
14670;DHT22;7423;48.722;9.350;2022-07-29T13:52:41;22.70;99.90
14670;DHT22;7423;48.722;9.350;2022-07-29T13:55:08;22.60;99.90
14670;DHT22;7423;48.722;9.350;2022-07-29T13:57:35;22.50;99.90
14670;DHT22;7423;48.722;9.350;2022-07-29T14:00:02;22.80;99.90
14670;DHT22;7423;48.722;9.350;2022-07-29T14:02:29;23.00;99.90
14670;DHT22;7423;48.722;9.350;2022-07-29T14:04:56;23.10;99.90
14670;DHT22;7423;48.722;9.350;2022-07-29T14:07:23;23.20;99.90
14670;DHT22;7423;48.722;9.350;2022-07-29T14:09:50;23.30;99.90
14670;DHT22;7423;48.722;9.350;2022-07-29T14:12:17;23.40;99.90
14670;DHT22;7423;48.722;9.350;2022-07-29T14:14:45;23.50;99.90
14670;DHT22;7423;48.722;9.350;2022-07-29T14:17:13;23.40;99.90
14670;DHT22;7423;48.722;9.350;2022-07-29T14:19:41;23.10;99.90
14670;DHT22;7423;48.722;9.350;2022-07-29T14:22:08;23.20;99.90
14670;DHT22;7423;48.722;9.350;2022-07-29T14:24:36;23.20;99.90
14670;DHT22;7423;48.722;9.350;2022-07-29T14:27:06;23.30;99.90
14670;DHT22;7423;48.722;9.350;2022-07-29T14:29:33;23.50;99.90
14670;DHT22;7423;48.722;9.350;2022-07-29T14:32:05;23.70;99.90
14670;DHT22;7423;48.722;9.350;2022-07-29T14:34:34;23.80;99.90
14670;DHT22;7423;48.722;9.350;2022-07-29T14:37:03;24.00;99.90
14670;DHT22;7423;48.722;9.350;2022-07-29T14:39:32;24.00;99.90
14670;DHT22;7423;48.722;9.350;2022-07-29T14:42:08;24.10;99.90
14670;DHT22;7423;48.722;9.350;2022-07-29T14:44:40;24.00;99.90
14670;DHT22;7423;48.722;9.350;2022-07-29T14:47:08;24.10;99.90
14670;DHT22;7423;48.722;9.350;2022-07-29T14:49:35;24.20;99.90
14670;DHT22;7423;48.722;9.350;2022-07-29T14:52:02;24.20;99.90
14670;DHT22;7423;48.722;9.350;2022-07-29T14:54:29;24.20;99.90
14670;DHT22;7423;48.722;9.350;2022-07-29T14:56:56;24.20;99.90
14670;DHT22;7423;48.722;9.350;2022-07-29T14:59:24;24.20;99.90
14670;DHT22;7423;48.722;9.350;2022-07-29T15:01:52;24.20;99.90
14670;DHT22;7423;48.722;9.350;2022-07-29T15:04:19;24.20;99.90
14670;DHT22;7423;48.722;9.350;2022-07-29T15:06:45;24.30;99.90
14670;DHT22;7423;48.722;9.350;2022-07-29T15:09:13;24.30;99.90
14670;DHT22;7423;48.722;9.350;2022-07-29T15:11:40;24.10;99.90
14670;DHT22;7423;48.722;9.350;2022-07-29T15:14:06;24.10;99.90
14670;DHT22;7423;48.722;9.350;2022-07-29T15:16:36;24.30;99.90
14670;DHT22;7423;48.722;9.350;2022-07-29T15:19:04;24.30;99.90
14670;DHT22;7423;48.722;9.350;2022-07-29T15:21:31;24.20;99.90
14670;DHT22;7423;48.722;9.350;2022-07-29T15:23:58;24.30;99.90
14670;DHT22;7423;48.722;9.350;2022-07-29T15:26:25;24.30;99.90
14670;DHT22;7423;48.722;9.350;2022-07-29T15:28:52;24.30;99.90
14670;DHT22;7423;48.722;9.350;2022-07-29T15:31:19;24.30;99.90
14670;DHT22;7423;48.722;9.350;2022-07-29T15:33:46;24.30;99.90
14670;DHT22;7423;48.722;9.350;2022-07-29T15:36:13;24.40;99.90
14670;DHT22;7423;48.722;9.350;2022-07-29T15:39:00;24.40;99.90
14670;DHT22;7423;48.722;9.350;2022-07-29T15:41:27;24.40;99.90
14670;DHT22;7423;48.722;9.350;2022-07-29T15:43:54;24.40;99.90
14670;DHT22;7423;48.722;9.350;2022-07-29T15:46:21;24.30;99.90
14670;DHT22;7423;48.722;9.350;2022-07-29T15:49:27;24.40;99.90
14670;DHT22;7423;48.722;9.350;2022-07-29T15:52:15;24.40;99.90
14670;DHT22;7423;48.722;9.350;2022-07-29T15:54:50;24.40;99.90
14670;DHT22;7423;48.722;9.350;2022-07-29T15:57:17;24.40;99.90
14670;DHT22;7423;48.722;9.350;2022-07-29T15:59:44;24.40;99.90
14670;DHT22;7423;48.722;9.350;2022-07-29T16:02:10;24.40;99.90
14670;DHT22;7423;48.722;9.350;2022-07-29T16:04:37;23.80;99.90
14670;DHT22;7423;48.722;9.350;2022-07-29T16:07:04;24.50;99.90
14670;DHT22;7423;48.722;9.350;2022-07-29T16:09:31;24.50;99.90
14670;DHT22;7423;48.722;9.350;2022-07-29T16:11:58;24.60;99.90
14670;DHT22;7423;48.722;9.350;2022-07-29T16:14:25;24.60;99.90
14670;DHT22;7423;48.722;9.350;2022-07-29T16:16:54;24.60;99.90
14670;DHT22;7423;48.722;9.350;2022-07-29T16:19:22;24.50;99.90
14670;DHT22;7423;48.722;9.350;2022-07-29T16:21:49;24.50;99.90
14670;DHT22;7423;48.722;9.350;2022-07-29T16:24:15;24.60;99.90
14670;DHT22;7423;48.722;9.350;2022-07-29T16:26:43;24.60;99.90
14670;DHT22;7423;48.722;9.350;2022-07-29T16:29:10;24.60;99.90
14670;DHT22;7423;48.722;9.350;2022-07-29T16:31:37;24.60;99.90
14670;DHT22;7423;48.722;9.350;2022-07-29T16:34:04;24.60;99.90
14670;DHT22;7423;48.722;9.350;2022-07-29T16:36:31;24.60;99.90
14670;DHT22;7423;48.722;9.350;2022-07-29T16:38:58;24.60;99.90
14670;DHT22;7423;48.722;9.350;2022-07-29T16:41:25;24.60;99.90
14670;DHT22;7423;48.722;9.350;2022-07-29T16:43:52;24.60;99.90
14670;DHT22;7423;48.722;9.350;2022-07-29T16:46:19;24.50;99.90
14670;DHT22;7423;48.722;9.350;2022-07-29T16:48:49;24.60;99.90
14670;DHT22;7423;48.722;9.350;2022-07-29T16:51:16;24.60;99.90
14670;DHT22;7423;48.722;9.350;2022-07-29T16:53:43;24.50;99.90
14670;DHT22;7423;48.722;9.350;2022-07-29T16:56:10;24.50;99.90
14670;DHT22;7423;48.722;9.350;2022-07-29T16:58:39;24.50;99.90
14670;DHT22;7423;48.722;9.350;2022-07-29T17:01:10;24.60;99.90
14670;DHT22;7423;48.722;9.350;2022-07-29T17:03:37;24.50;99.90
14670;DHT22;7423;48.722;9.350;2022-07-29T17:06:26;24.50;99.90
14670;DHT22;7423;48.722;9.350;2022-07-29T17:08:55;24.50;99.90
14670;DHT22;7423;48.722;9.350;2022-07-29T17:11:22;24.50;99.90
14670;DHT22;7423;48.722;9.350;2022-07-29T17:14:09;24.50;99.90
14670;DHT22;7423;48.722;9.350;2022-07-29T17:16:36;25.60;99.90
14670;DHT22;7423;48.722;9.350;2022-07-29T17:19:03;24.60;99.90
14670;DHT22;7423;48.722;9.350;2022-07-29T17:21:30;24.50;99.90
14670;DHT22;7423;48.722;9.350;2022-07-29T17:23:57;24.60;99.90
14670;DHT22;7423;48.722;9.350;2022-07-29T17:26:25;24.60;99.90
14670;DHT22;7423;48.722;9.350;2022-07-29T17:28:54;24.50;99.90
14670;DHT22;7423;48.722;9.350;2022-07-29T17:31:21;24.50;99.90
14670;DHT22;7423;48.722;9.350;2022-07-29T17:33:49;24.50;99.90
14670;DHT22;7423;48.722;9.350;2022-07-29T17:36:16;24.50;99.90
14670;DHT22;7423;48.722;9.350;2022-07-29T17:38:57;24.50;99.90
14670;DHT22;7423;48.722;9.350;2022-07-29T17:41:27;24.50;99.90
14670;DHT22;7423;48.722;9.350;2022-07-29T17:43:54;24.50;99.90
14670;DHT22;7423;48.722;9.350;2022-07-29T17:46:21;24.50;99.90
14670;DHT22;7423;48.722;9.350;2022-07-29T17:48:56;24.60;99.90
14670;DHT22;7423;48.722;9.350;2022-07-29T17:51:24;24.50;99.90
14670;DHT22;7423;48.722;9.350;2022-07-29T17:53:52;24.40;99.90
14670;DHT22;7423;48.722;9.350;2022-07-29T17:56:19;24.40;99.90
14670;DHT22;7423;48.722;9.350;2022-07-29T17:58:47;24.40;99.90
14670;DHT22;7423;48.722;9.350;2022-07-29T18:01:14;24.40;99.90
14670;DHT22;7423;48.722;9.350;2022-07-29T18:03:42;24.40;99.90
14670;DHT22;7423;48.722;9.350;2022-07-29T18:06:09;24.40;99.90
14670;DHT22;7423;48.722;9.350;2022-07-29T18:08:36;24.40;99.90
14670;DHT22;7423;48.722;9.350;2022-07-29T18:11:05;24.40;99.90
14670;DHT22;7423;48.722;9.350;2022-07-29T18:13:32;24.50;99.90
14670;DHT22;7423;48.722;9.350;2022-07-29T18:15:58;24.50;99.90